Time;durP1;ratioP1;P1;durP2;ratioP2;P2;SDS_P1;SDS_P2;PMS_P1;PMS_P2;Temp;Humidity;BMP_temperature;BMP_pressure;BME280_temperature;BME280_humidity;BME280_pressure;Samples;Min_cycle;Max_cycle;Signal;HPM_P1;HPM_P2
2021/06/29 00:01:48;;;;;;;9.10;5.18;;;;;;;;;;6213405;22;20190;-92
2021/06/29 00:04:55;;;;;;;8.82;4.70;;;;;;;;;;6213678;23;20175;-91
2021/06/29 00:08:02;;;;;;;7.28;4.68;;;;;;;;;;6214042;23;20175;-90
2021/06/29 00:11:07;;;;;;;5.60;4.20;;;;;;;;;;6214160;23;20159;-91
2021/06/29 00:14:12;;;;;;;7.78;5.03;;;;;;;;;;6214653;22;20163;-91
2021/06/29 00:17:16;;;;;;;10.90;4.50;;;;;;;;;;6214734;23;20227;-91
2021/06/29 00:20:23;;;;;;;5.93;4.40;;;;;;;;;;6213263;23;20167;-91
2021/06/29 00:23:28;;;;;;;6.38;4.40;;;;;;;;;;6212862;23;20179;-91
2021/06/29 00:26:34;;;;;;;6.70;4.00;;;;;;;;;;6213081;23;20178;-91
2021/06/29 00:29:39;;;;;;;9.65;4.10;;;;;;;;;;6215430;23;20159;-91
2021/06/29 00:32:45;;;;;;;5.35;3.92;;;;;;;;;;6215181;23;20167;-91
2021/06/29 00:35:52;;;;;;;6.25;3.67;;;;;;;;;;6214288;23;20189;-91
2021/06/29 00:38:56;;;;;;;5.43;3.45;;;;;;;;;;6212015;23;20195;-91
2021/06/29 00:42:02;;;;;;;4.05;3.00;;;;;;;;;;6212206;23;20163;-91
2021/06/29 00:45:07;;;;;;;8.48;3.08;;;;;;;;;;6214074;23;20155;-91
2021/06/29 00:48:13;;;;;;;6.28;2.30;;;;;;;;;;6214312;23;20167;-91
2021/06/29 00:51:20;;;;;;;8.73;2.13;;;;;;;;;;6215350;23;20171;-91
2021/06/29 00:54:25;;;;;;;3.97;1.75;;;;;;;;;;6213599;23;20163;-92
2021/06/29 00:57:31;;;;;;;7.82;2.33;;;;;;;;;;6212503;23;20167;-90
2021/06/29 01:00:36;;;;;;;6.00;2.00;;;;;;;;;;6213407;22;20178;-89
2021/06/29 01:03:41;;;;;;;5.25;1.95;;;;;;;;;;6213137;22;20175;-90
2021/06/29 01:06:48;;;;;;;7.60;2.30;;;;;;;;;;6214151;22;20159;-91
2021/06/29 01:09:53;;;;;;;7.68;2.03;;;;;;;;;;6214481;23;20258;-90
2021/06/29 01:12:58;;;;;;;7.32;1.95;;;;;;;;;;6213598;23;20163;-90
2021/06/29 01:16:05;;;;;;;3.72;1.95;;;;;;;;;;6212823;23;20286;-92
2021/06/29 01:19:12;;;;;;;4.18;1.80;;;;;;;;;;6213279;22;20170;-92
2021/06/29 01:22:20;;;;;;;6.25;1.80;;;;;;;;;;6214112;23;20186;-92
2021/06/29 01:25:29;;;;;;;3.00;1.90;;;;;;;;;;6214323;23;20174;-92
2021/06/29 01:28:39;;;;;;;5.53;1.83;;;;;;;;;;6213317;23;20179;-91
2021/06/29 01:31:45;;;;;;;4.35;1.88;;;;;;;;;;6214522;22;20224;-91
2021/06/29 01:34:50;;;;;;;5.30;1.80;;;;;;;;;;6214789;22;20164;-91
2021/06/29 01:37:56;;;;;;;4.20;1.80;;;;;;;;;;6215034;23;20548;-91
2021/06/29 01:41:02;;;;;;;4.95;2.00;;;;;;;;;;6213532;23;20171;-92
2021/06/29 01:44:11;;;;;;;8.55;1.95;;;;;;;;;;6212938;23;20175;-92
2021/06/29 01:47:24;;;;;;;4.85;1.88;;;;;;;;;;6214786;23;20175;-91
2021/06/29 01:50:30;;;;;;;5.40;1.90;;;;;;;;;;6213998;23;20172;-91
2021/06/29 01:53:36;;;;;;;4.00;1.80;;;;;;;;;;6214635;23;20220;-91
2021/06/29 01:56:43;;;;;;;3.08;2.00;;;;;;;;;;6213326;23;20203;-92
2021/06/29 01:59:49;;;;;;;6.07;1.80;;;;;;;;;;6213698;22;20159;-91
2021/06/29 02:02:54;;;;;;;2.47;1.58;;;;;;;;;;6213109;22;20231;-91
2021/06/29 02:06:00;;;;;;;5.00;2.10;;;;;;;;;;6215037;23;20163;-92
2021/06/29 02:09:08;;;;;;;7.20;1.85;;;;;;;;;;6215263;23;20191;-90
2021/06/29 02:12:14;;;;;;;6.65;2.10;;;;;;;;;;6215027;23;20187;-91
2021/06/29 02:15:20;;;;;;;6.03;1.63;;;;;;;;;;6215765;23;20190;-90
2021/06/29 02:18:25;;;;;;;5.53;2.10;;;;;;;;;;6215256;23;20162;-90
2021/06/29 02:21:30;;;;;;;2.90;1.60;;;;;;;;;;6215365;22;20258;-90
2021/06/29 02:24:37;;;;;;;5.00;1.55;;;;;;;;;;6216595;23;20159;-92
2021/06/29 02:27:43;;;;;;;3.88;1.75;;;;;;;;;;6216597;23;20171;-92
2021/06/29 02:30:48;;;;;;;3.13;1.80;;;;;;;;;;6216198;23;20171;-91
2021/06/29 02:33:53;;;;;;;2.88;1.38;;;;;;;;;;6215597;23;20163;-90
2021/06/29 02:36:58;;;;;;;6.38;1.48;;;;;;;;;;6215912;22;20179;-91
2021/06/29 02:40:07;;;;;;;3.92;1.40;;;;;;;;;;6215524;22;20171;-91
2021/06/29 02:43:15;;;;;;;3.05;1.40;;;;;;;;;;6216598;23;20191;-91
2021/06/29 02:46:21;;;;;;;3.95;1.33;;;;;;;;;;6216268;23;20174;-90
2021/06/29 02:49:26;;;;;;;3.40;1.17;;;;;;;;;;6215440;22;20679;-92
2021/06/29 02:52:32;;;;;;;4.13;1.52;;;;;;;;;;6215467;22;20167;-92
2021/06/29 02:55:39;;;;;;;4.07;1.17;;;;;;;;;;6215341;22;20170;-91
2021/06/29 02:58:44;;;;;;;3.20;1.23;;;;;;;;;;6215201;23;20254;-92
2021/06/29 03:01:49;;;;;;;3.40;1.30;;;;;;;;;;6214629;23;20259;-91
2021/06/29 03:04:54;;;;;;;6.85;1.38;;;;;;;;;;6213225;23;20214;-91
2021/06/29 03:08:00;;;;;;;2.95;1.33;;;;;;;;;;6214096;22;20182;-91
2021/06/29 03:11:07;;;;;;;7.60;1.58;;;;;;;;;;6215186;23;20168;-92
2021/06/29 03:14:12;;;;;;;3.58;1.35;;;;;;;;;;6218057;23;20199;-91
2021/06/29 03:17:19;;;;;;;5.45;1.45;;;;;;;;;;6215961;23;20194;-90
2021/06/29 03:20:24;;;;;;;4.45;1.30;;;;;;;;;;6216475;22;20232;-92
2021/06/29 03:23:28;;;;;;;1.95;1.05;;;;;;;;;;6215092;22;20203;-91
2021/06/29 03:26:36;;;;;;;3.97;1.42;;;;;;;;;;6213735;22;20210;-92
2021/06/29 03:29:41;;;;;;;3.20;1.38;;;;;;;;;;6215240;22;20151;-93
2021/06/29 03:32:47;;;;;;;3.88;1.30;;;;;;;;;;6214646;23;20618;-91
2021/06/29 03:35:52;;;;;;;3.30;1.48;;;;;;;;;;6214826;23;20558;-92
2021/06/29 03:38:57;;;;;;;3.33;1.90;;;;;;;;;;6215557;23;20218;-91
2021/06/29 03:42:04;;;;;;;4.43;1.90;;;;;;;;;;6216647;23;20167;-91
2021/06/29 03:45:09;;;;;;;3.30;2.10;;;;;;;;;;6215800;22;20167;-92
2021/06/29 03:48:14;;;;;;;2.88;2.00;;;;;;;;;;6216415;23;20345;-91
2021/06/29 03:51:19;;;;;;;3.55;2.42;;;;;;;;;;6214366;23;20167;-91
2021/06/29 03:54:24;;;;;;;6.00;2.17;;;;;;;;;;6215557;23;20203;-90
2021/06/29 03:57:31;;;;;;;4.10;2.10;;;;;;;;;;6213740;22;20198;-91
2021/06/29 04:00:36;;;;;;;3.45;2.05;;;;;;;;;;6214759;22;20198;-91
2021/06/29 04:03:41;;;;;;;6.05;2.40;;;;;;;;;;6216009;23;20220;-91
2021/06/29 04:06:47;;;;;;;2.92;2.15;;;;;;;;;;6214682;23;20166;-91
2021/06/29 04:09:52;;;;;;;4.38;2.22;;;;;;;;;;6214590;23;20172;-90
2021/06/29 04:12:59;;;;;;;5.60;2.22;;;;;;;;;;6213303;23;20219;-90
2021/06/29 04:16:04;;;;;;;5.28;2.70;;;;;;;;;;6215462;23;20191;-91
2021/06/29 04:19:09;;;;;;;4.03;2.05;;;;;;;;;;6213102;23;20603;-92
2021/06/29 04:22:14;;;;;;;6.03;2.50;;;;;;;;;;6215051;22;20167;-92
2021/06/29 04:25:19;;;;;;;3.92;2.45;;;;;;;;;;6214398;23;20175;-92
2021/06/29 04:28:26;;;;;;;6.68;3.00;;;;;;;;;;6214035;23;20175;-92
2021/06/29 04:31:31;;;;;;;4.15;2.78;;;;;;;;;;6212790;23;20171;-90
2021/06/29 04:34:36;;;;;;;6.60;2.85;;;;;;;;;;6214211;22;20186;-92
2021/06/29 19:06:39;;;;;;;0.25;0.25;;;;;;;;;;6187017;22;20196;-92
2021/06/29 19:09:46;;;;;;;0.40;0.40;;;;;;;;;;6198934;23;20171;-91
2021/06/29 19:12:51;;;;;;;0.20;0.20;;;;;;;;;;6216773;23;20159;-89
2021/06/29 19:15:56;;;;;;;0.43;0.43;;;;;;;;;;6215541;23;20226;-92
2021/06/29 19:19:02;;;;;;;0.35;0.35;;;;;;;;;;6213822;23;20171;-92
2021/06/29 19:22:10;;;;;;;0.20;0.20;;;;;;;;;;6216104;23;20170;-92
2021/06/29 19:25:18;;;;;;;0.43;0.43;;;;;;;;;;6218988;22;20166;-93
2021/06/29 19:28:24;;;;;;;0.20;0.20;;;;;;;;;;6215797;22;20167;-91
2021/06/29 19:31:32;;;;;;;0.20;0.20;;;;;;;;;;6220185;23;20171;-93
2021/06/29 19:34:38;;;;;;;0.40;0.40;;;;;;;;;;6216412;23;20167;-90
2021/06/29 19:37:45;;;;;;;0.20;0.20;;;;;;;;;;6217430;23;20215;-92
2021/06/29 19:40:51;;;;;;;0.30;0.30;;;;;;;;;;6218929;22;20559;-91
2021/06/29 19:43:58;;;;;;;0.30;0.30;;;;;;;;;;6218319;23;20171;-92
2021/06/29 19:47:03;;;;;;;0.20;0.20;;;;;;;;;;6216014;23;20170;-91
2021/06/29 19:50:11;;;;;;;0.82;0.70;;;;;;;;;;6216764;23;20174;-90
2021/06/29 19:53:20;;;;;;;0.30;0.30;;;;;;;;;;6214606;22;20158;-91
2021/06/29 19:56:31;;;;;;;0.20;0.20;;;;;;;;;;6215007;23;20168;-90
2021/06/29 19:59:37;;;;;;;0.30;0.30;;;;;;;;;;6215975;23;20167;-92
2021/06/29 20:02:42;;;;;;;0.40;0.40;;;;;;;;;;6217280;23;20509;-91
2021/06/29 20:05:47;;;;;;;0.20;0.20;;;;;;;;;;6217417;22;20167;-91
2021/06/29 20:08:55;;;;;;;0.20;0.20;;;;;;;;;;6214477;23;20171;-91
2021/06/29 20:12:01;;;;;;;0.32;0.32;;;;;;;;;;6213716;22;20174;-91
2021/06/29 20:15:07;;;;;;;0.45;0.45;;;;;;;;;;6214635;23;20171;-92
2021/06/29 20:18:12;;;;;;;0.20;0.20;;;;;;;;;;6213840;23;20198;-92
2021/06/29 20:21:20;;;;;;;0.30;0.30;;;;;;;;;;6213734;23;20171;-92
2021/06/29 20:24:27;;;;;;;0.63;0.63;;;;;;;;;;6212244;23;20175;-91
2021/06/29 20:27:32;;;;;;;0.22;0.22;;;;;;;;;;6213885;23;20175;-92
2021/06/29 20:30:38;;;;;;;0.30;0.30;;;;;;;;;;6212554;22;20167;-91
2021/06/29 20:33:46;;;;;;;0.30;0.30;;;;;;;;;;6213948;23;20222;-92
2021/06/29 20:36:52;;;;;;;0.38;0.38;;;;;;;;;;6214600;22;20197;-92
2021/06/29 20:39:58;;;;;;;0.38;0.38;;;;;;;;;;6211930;23;20167;-91
2021/06/29 20:43:06;;;;;;;0.50;0.40;;;;;;;;;;6213382;23;20183;-92
2021/06/29 20:46:11;;;;;;;0.30;0.30;;;;;;;;;;6211066;23;20231;-91
2021/06/29 20:49:17;;;;;;;0.20;0.20;;;;;;;;;;6211534;23;20179;-91
2021/06/29 20:52:21;;;;;;;0.22;0.22;;;;;;;;;;6211803;23;20175;-91
2021/06/29 20:55:28;;;;;;;0.50;0.50;;;;;;;;;;6212399;23;20210;-91
2021/06/29 20:58:33;;;;;;;0.20;0.20;;;;;;;;;;6212650;23;20703;-90
2021/06/29 21:01:38;;;;;;;0.20;0.20;;;;;;;;;;6212809;23;20167;-92
2021/06/29 21:04:43;;;;;;;0.30;0.30;;;;;;;;;;6212519;23;20188;-90
2021/06/29 21:07:49;;;;;;;0.22;0.22;;;;;;;;;;6213523;23;20186;-92
2021/06/29 21:10:55;;;;;;;0.20;0.20;;;;;;;;;;6215575;23;20230;-92
2021/06/29 21:14:02;;;;;;;0.20;0.20;;;;;;;;;;6212775;23;20284;-91
2021/06/29 21:17:08;;;;;;;1.50;0.90;;;;;;;;;;6214749;22;20178;-92
2021/06/29 21:20:13;;;;;;;0.47;0.47;;;;;;;;;;6216875;22;20667;-92
2021/06/29 21:23:18;;;;;;;0.65;0.25;;;;;;;;;;6215134;23;20190;-93
2021/06/29 21:26:27;;;;;;;0.30;0.30;;;;;;;;;;6213499;23;20151;-93
2021/06/29 21:29:33;;;;;;;0.47;0.40;;;;;;;;;;6212557;23;20170;-92
2021/06/29 21:32:40;;;;;;;0.20;0.20;;;;;;;;;;6213255;23;20174;-90
2021/06/29 21:35:49;;;;;;;0.80;0.50;;;;;;;;;;6218863;22;20240;-91
2021/06/29 21:38:56;;;;;;;1.02;0.52;;;;;;;;;;6217905;23;20261;-91
2021/06/29 21:42:07;;;;;;;0.30;0.30;;;;;;;;;;6219568;23;20159;-91
2021/06/29 21:48:33;;;;;;;0.30;0.30;;;;;;;;;;6219415;22;20258;-92
2021/06/29 21:55:00;;;;;;;0.20;0.20;;;;;;;;;;6218617;23;20183;-92
2021/06/29 21:58:10;;;;;;;0.50;0.50;;;;;;;;;;6211657;23;20215;-91
2021/06/29 22:01:16;;;;;;;0.20;0.20;;;;;;;;;;6212009;22;20637;-92
2021/06/29 22:04:22;;;;;;;0.35;0.30;;;;;;;;;;6213711;23;20204;-92
2021/06/29 22:07:27;;;;;;;0.20;0.20;;;;;;;;;;6214599;22;20198;-92
2021/06/29 22:10:34;;;;;;;0.30;0.30;;;;;;;;;;6214189;23;20247;-90
2021/06/29 22:13:45;;;;;;;0.28;0.28;;;;;;;;;;6210609;23;20175;-89
2021/06/29 22:16:50;;;;;;;0.30;0.30;;;;;;;;;;6213519;22;20163;-91
2021/06/29 22:19:56;;;;;;;0.20;0.20;;;;;;;;;;6213794;22;20184;-92
2021/06/29 22:23:01;;;;;;;3.05;0.57;;;;;;;;;;6215703;23;20158;-92
2021/06/29 22:26:07;;;;;;;0.20;0.20;;;;;;;;;;6216308;23;20170;-90
2021/06/29 22:29:14;;;;;;;0.30;0.30;;;;;;;;;;6215949;23;20236;-93
2021/06/29 22:32:21;;;;;;;0.20;0.20;;;;;;;;;;6214782;22;20167;-91
2021/06/29 22:35:26;;;;;;;0.20;0.20;;;;;;;;;;6215908;22;20183;-91
2021/06/29 22:38:31;;;;;;;0.40;0.40;;;;;;;;;;6214077;22;20219;-92
2021/06/29 22:41:37;;;;;;;0.20;0.20;;;;;;;;;;6216182;22;20195;-92
2021/06/29 22:44:44;;;;;;;0.20;0.20;;;;;;;;;;6213910;23;20223;-91
2021/06/29 22:47:49;;;;;;;0.38;0.38;;;;;;;;;;6212740;23;20175;-90
2021/06/29 22:50:54;;;;;;;0.30;0.30;;;;;;;;;;6213266;22;20194;-91
2021/06/29 22:53:59;;;;;;;1.02;0.32;;;;;;;;;;6214252;23;20234;-92
2021/06/29 22:57:05;;;;;;;1.08;0.63;;;;;;;;;;6214474;23;20151;-91
2021/06/29 23:00:14;;;;;;;0.55;0.30;;;;;;;;;;6214564;23;20166;-91
2021/06/29 23:03:19;;;;;;;0.30;0.30;;;;;;;;;;6215219;23;20167;-91
2021/06/29 23:06:26;;;;;;;1.10;0.90;;;;;;;;;;6235041;22;20182;-88
2021/06/29 23:09:33;;;;;;;2.88;1.17;;;;;;;;;;6216823;23;20473;-91
2021/06/29 23:12:39;;;;;;;2.58;1.20;;;;;;;;;;6200179;23;20225;-92
2021/06/29 23:15:45;;;;;;;5.22;1.00;;;;;;;;;;6211554;22;20319;-92
2021/06/29 23:18:52;;;;;;;1.75;1.05;;;;;;;;;;6153991;23;20192;-90
2021/06/29 23:21:58;;;;;;;4.25;1.00;;;;;;;;;;6156684;23;20512;-90
2021/06/29 23:25:04;;;;;;;1.58;1.05;;;;;;;;;;6157047;23;20168;-91
2021/06/29 23:28:09;;;;;;;3.97;1.40;;;;;;;;;;6157491;23;20676;-92
2021/06/29 23:31:16;;;;;;;4.05;1.55;;;;;;;;;;6156100;23;20168;-92
2021/06/29 23:34:23;;;;;;;2.50;1.13;;;;;;;;;;6172097;23;20242;-91
2021/06/29 23:37:29;;;;;;;2.83;1.10;;;;;;;;;;6156886;23;20173;-91
2021/06/29 23:40:34;;;;;;;2.53;1.20;;;;;;;;;;6154616;23;20220;-89
2021/06/29 23:43:39;;;;;;;1.75;0.93;;;;;;;;;;6155838;23;20156;-90
2021/06/29 23:46:46;;;;;;;2.55;1.10;;;;;;;;;;6153745;23;20164;-92
2021/06/29 23:49:53;;;;;;;2.22;1.10;;;;;;;;;;6153419;23;20173;-92
2021/06/29 23:52:59;;;;;;;5.78;1.17;;;;;;;;;;6153422;23;20173;-92
2021/06/29 23:56:09;;;;;;;3.35;1.10;;;;;;;;;;6154779;23;20237;-92
2021/06/29 23:59:14;;;;;;;3.67;0.95;;;;;;;;;;6154279;23;20196;-92
